createdAt,value
2018-07-06T00:00:04.915Z,98074.28
2018-07-06T00:02:47.392Z,98076.14
2018-07-06T00:05:28.867Z,98065.13
2018-07-06T00:08:10.454Z,98054.23
2018-07-06T00:10:52.072Z,98059.46
2018-07-06T00:13:33.612Z,98057.30
2018-07-06T00:16:14.990Z,98059.27
2018-07-06T00:18:56.687Z,98058.01
2018-07-06T00:21:38.182Z,98059.46
2018-07-06T00:24:19.586Z,98056.08
2018-07-06T00:27:01.113Z,98062.65
2018-07-06T00:29:43.386Z,98064.70
2018-07-06T00:32:25.340Z,98074.17
2018-07-06T00:35:06.764Z,98071.30
2018-07-06T00:37:48.258Z,98072.01
2018-07-06T00:40:29.623Z,98075.59
2018-07-06T00:43:11.344Z,98076.41
2018-07-06T00:45:53.204Z,98071.58
2018-07-06T00:48:34.888Z,98075.59
2018-07-06T00:51:16.614Z,98073.94
2018-07-06T00:53:58.070Z,98072.59
2018-07-06T00:56:39.914Z,98082.66
2018-07-06T00:59:21.649Z,98086.67
2018-07-06T01:02:03.031Z,98086.16
2018-07-06T01:04:44.482Z,98093.67
2018-07-06T01:07:26.310Z,98084.62
2018-07-06T01:10:07.898Z,98087.30
2018-07-06T01:12:53.737Z,98095.84
2018-07-06T01:15:38.629Z,98092.34
2018-07-06T01:18:20.493Z,98098.00
2018-07-06T01:21:02.621Z,98103.66
2018-07-06T01:23:44.492Z,98100.05
2018-07-06T01:26:25.712Z,98100.55
2018-07-06T01:29:07.627Z,98109.09
2018-07-06T01:31:49.520Z,98106.41
2018-07-06T01:34:31.473Z,98113.33
2018-07-06T01:37:12.849Z,98121.86
2018-07-06T01:39:54.961Z,98126.18
2018-07-06T01:42:36.690Z,98119.27
2018-07-06T01:45:18.569Z,98118.16
2018-07-06T01:48:00.086Z,98117.65
2018-07-06T01:50:41.334Z,98125.55
2018-07-06T01:53:22.984Z,98128.54
2018-07-06T01:56:04.732Z,98129.56
2018-07-06T01:58:46.070Z,98131.72
2018-07-06T02:01:27.637Z,98127.52
2018-07-06T02:04:08.908Z,98124.53
2018-07-06T02:06:50.529Z,98125.55
2018-07-06T02:09:32.754Z,98131.53
2018-07-06T02:12:14.523Z,98127.40
2018-07-06T02:14:55.932Z,98126.57
2018-07-06T02:17:37.446Z,98128.22
2018-07-06T02:20:18.913Z,98135.22
2018-07-06T02:23:00.303Z,98132.86
2018-07-06T02:25:41.441Z,98127.20
2018-07-06T02:28:22.834Z,98127.40
2018-07-06T02:31:04.055Z,98129.88
2018-07-06T02:33:45.998Z,98125.23
2018-07-06T02:36:28.180Z,98128.22
2018-07-06T02:39:10.152Z,98129.88
2018-07-06T02:41:52.106Z,98136.25
2018-07-06T02:44:33.553Z,98133.69
2018-07-06T02:47:15.123Z,98146.11
2018-07-06T02:49:56.903Z,98138.92
2018-07-06T02:52:38.790Z,98144.27
2018-07-06T02:55:20.753Z,98153.62
2018-07-06T02:58:02.345Z,98157.95
2018-07-06T03:00:44.181Z,98166.99
2018-07-06T03:03:25.988Z,98171.52
2018-07-06T03:06:07.595Z,98178.39
2018-07-06T03:08:49.118Z,98171.00
2018-07-06T03:11:31.549Z,98173.05
2018-07-06T03:14:13.107Z,98169.66
2018-07-06T03:16:55.052Z,98181.50
2018-07-06T03:19:37.226Z,98181.50
2018-07-06T03:22:19.121Z,98181.06
2018-07-06T03:25:00.652Z,98183.55
2018-07-06T03:27:42.783Z,98179.09
2018-07-06T03:30:24.481Z,98171.39
2018-07-06T03:33:06.561Z,98177.38
2018-07-06T03:35:49.510Z,98176.34
2018-07-06T03:38:31.004Z,98173.67
2018-07-06T03:41:12.651Z,98175.72
2018-07-06T03:43:54.413Z,98179.41
2018-07-06T03:46:35.820Z,98179.22
2018-07-06T03:49:17.358Z,98189.72
2018-07-06T03:51:59.033Z,98192.39
2018-07-06T03:54:40.548Z,98192.39
2018-07-06T03:57:21.986Z,98196.20
2018-07-06T04:00:03.596Z,98194.05
2018-07-06T04:02:44.837Z,98194.87
2018-07-06T04:05:26.725Z,98184.69
2018-07-06T04:08:07.685Z,98186.02
2018-07-06T04:10:49.659Z,98191.38
2018-07-06T04:13:31.360Z,98188.28
2018-07-06T04:16:13.117Z,98193.05
2018-07-06T04:18:58.483Z,98194.50
2018-07-06T04:21:40.189Z,98195.33
2018-07-06T04:24:21.509Z,98186.09
2018-07-06T04:27:03.056Z,98184.97
2018-07-06T04:29:44.562Z,98183.31
2018-07-06T04:32:25.841Z,98182.71
2018-07-06T04:35:07.667Z,98178.98
2018-07-06T04:37:50.129Z,98178.55
2018-07-06T04:40:31.550Z,98174.17
2018-07-06T04:43:13.160Z,98172.75
2018-07-06T04:45:54.447Z,98181.96
2018-07-06T04:48:36.290Z,98180.11
2018-07-06T04:51:17.921Z,98183.10
2018-07-06T04:53:59.807Z,98182.59
2018-07-06T04:56:41.853Z,98181.98
2018-07-06T04:59:24.370Z,98181.91
2018-07-06T05:02:06.117Z,98177.19
2018-07-06T05:04:48.061Z,98176.95
2018-07-06T05:07:29.472Z,98181.09
2018-07-06T05:10:11.298Z,98182.42
2018-07-06T05:12:53.919Z,98182.42
2018-07-06T05:15:37.228Z,98179.36
2018-07-06T05:18:19.109Z,98180.16
2018-07-06T05:21:01.000Z,98181.09
2018-07-06T05:23:42.699Z,98176.05
2018-07-06T05:26:24.867Z,98174.80
2018-07-06T05:29:06.462Z,98171.23
2018-07-06T05:31:48.095Z,98168.23
2018-07-06T05:34:30.121Z,98166.58
2018-07-06T05:37:12.349Z,98170.09
2018-07-06T05:39:53.960Z,98171.63
2018-07-06T05:42:35.914Z,98173.08
2018-07-06T05:45:17.477Z,98167.84
2018-07-06T05:47:59.244Z,98157.97
2018-07-06T05:50:41.302Z,98161.17
2018-07-06T05:53:22.965Z,98153.02
2018-07-06T05:56:04.953Z,98153.14
2018-07-06T05:58:46.787Z,98156.39
2018-07-06T06:01:27.967Z,98154.67
2018-07-06T06:04:09.930Z,98154.88
2018-07-06T06:06:51.996Z,98149.13
2018-07-06T06:09:24.681Z,98143.06
2018-07-06T06:11:57.699Z,98136.66
2018-07-06T06:14:30.862Z,98134.72
2018-07-06T06:17:03.987Z,98129.45
2018-07-06T06:19:40.568Z,98131.53
2018-07-06T06:22:14.068Z,98125.16
2018-07-06T06:24:47.429Z,98120.94
2018-07-06T06:27:20.615Z,98124.05
2018-07-06T06:29:54.224Z,98117.55
2018-07-06T06:32:28.013Z,98118.69
2018-07-06T06:35:01.021Z,98112.00
2018-07-06T06:37:34.196Z,98115.39
2018-07-06T06:40:06.659Z,98109.32
2018-07-06T06:42:39.397Z,98106.84
2018-07-06T06:45:11.742Z,98112.91
2018-07-06T06:47:46.099Z,98104.29
2018-07-06T06:50:19.580Z,98098.19
2018-07-06T06:52:52.199Z,98095.23
2018-07-06T06:55:25.491Z,98090.78
2018-07-06T06:57:59.035Z,98086.45
2018-07-06T07:00:31.732Z,98087.78
2018-07-06T07:03:04.475Z,98085.22
2018-07-06T07:05:37.695Z,98076.79
2018-07-06T07:08:10.082Z,98074.52
2018-07-06T07:10:42.576Z,98070.09
2018-07-06T07:13:15.373Z,98063.61
2018-07-06T07:15:49.115Z,98060.49
2018-07-06T07:18:22.170Z,98064.10
2018-07-06T07:20:55.268Z,98060.20
2018-07-06T07:23:28.473Z,98051.95
2018-07-06T07:26:00.996Z,98051.42
2018-07-06T07:28:33.596Z,98050.08
2018-07-06T07:31:06.675Z,98055.23
2018-07-06T07:33:39.985Z,98055.96
2018-07-06T07:36:12.681Z,98050.52
2018-07-06T07:38:48.102Z,98047.30
2018-07-06T07:41:20.992Z,98037.94
2018-07-06T07:43:54.084Z,98045.66
2018-07-06T07:46:27.587Z,98032.76
2018-07-06T07:49:00.785Z,98028.65
2018-07-06T07:52:09.005Z,98029.03
2018-07-06T07:54:52.404Z,98024.70
2018-07-06T07:57:25.246Z,98016.47
2018-07-06T07:59:58.279Z,98015.12
2018-07-06T08:02:31.370Z,98019.77
2018-07-06T08:05:03.971Z,98011.01
2018-07-06T08:07:37.014Z,98014.09
2018-07-06T08:10:10.218Z,98001.02
2018-07-06T08:12:43.702Z,98004.52
2018-07-06T08:15:15.891Z,97997.83
2018-07-06T08:17:49.195Z,97997.38
2018-07-06T08:20:22.347Z,97991.13
2018-07-06T08:22:54.802Z,97991.92
2018-07-06T08:25:27.049Z,97986.05
2018-07-06T08:28:01.188Z,97991.78
2018-07-06T08:30:34.052Z,97987.59
2018-07-06T08:33:06.415Z,97977.36
2018-07-06T08:35:48.370Z,97974.81
2018-07-06T08:38:20.763Z,97975.41
2018-07-06T08:40:53.684Z,97968.13
2018-07-06T08:43:25.649Z,97966.85
2018-07-06T08:45:57.822Z,97969.02
2018-07-06T08:48:31.009Z,97953.25
2018-07-06T08:51:03.509Z,97948.62
2018-07-06T08:53:36.645Z,97943.50
2018-07-06T08:56:08.843Z,97937.34
2018-07-06T08:58:42.946Z,97934.72
2018-07-06T09:01:15.884Z,97937.40
2018-07-06T09:10:49.616Z,97922.35
2018-07-06T09:13:22.812Z,97910.61
2018-07-06T09:15:55.456Z,97916.58
2018-07-06T09:18:27.833Z,97908.33
2018-07-06T09:21:01.208Z,97907.36
2018-07-06T09:23:34.875Z,97913.41
2018-07-06T09:26:07.952Z,97906.25
2018-07-06T09:28:40.479Z,97900.30
2018-07-06T09:31:13.494Z,97895.63
2018-07-06T09:33:45.999Z,97893.89
2018-07-06T09:36:20.059Z,97893.06
2018-07-06T09:38:52.336Z,97888.41
2018-07-06T09:41:25.153Z,97889.60
2018-07-06T09:43:58.139Z,97883.36
2018-07-06T09:46:30.437Z,97873.27
2018-07-06T09:49:06.399Z,97876.02
2018-07-06T09:51:39.222Z,97877.42
2018-07-06T09:54:13.014Z,97870.31
2018-07-06T09:56:45.771Z,97860.11
2018-07-06T09:59:19.888Z,97863.92
2018-07-06T10:01:52.480Z,97858.80
2018-07-06T10:04:24.856Z,97854.33
2018-07-06T10:07:00.603Z,97854.63
2018-07-06T10:09:34.884Z,97848.81
2018-07-06T10:12:08.561Z,97844.15
2018-07-06T10:14:41.020Z,97837.14
2018-07-06T10:17:15.870Z,97838.23
2018-07-06T10:19:48.873Z,97834.67
2018-07-06T10:22:22.532Z,97833.18
2018-07-06T10:24:55.633Z,97825.59
2018-07-06T10:27:34.591Z,97825.02
2018-07-06T10:30:17.191Z,97820.22
2018-07-06T10:32:49.811Z,97813.98
2018-07-06T10:35:22.680Z,97807.13
2018-07-06T10:37:55.310Z,97805.72
2018-07-06T10:40:28.048Z,97803.27
2018-07-06T10:43:00.652Z,97804.08
2018-07-06T10:45:32.858Z,97801.04
2018-07-06T10:48:06.856Z,97796.71
2018-07-06T10:50:39.898Z,97795.50
2018-07-06T10:53:12.537Z,97791.48
2018-07-06T10:55:44.976Z,97784.95
2018-07-06T10:58:17.735Z,97782.18
2018-07-06T11:00:50.684Z,97785.42
2018-07-06T11:03:22.634Z,97776.73
2018-07-06T11:05:54.993Z,97772.36
2018-07-06T11:08:28.264Z,97770.20
2018-07-06T11:11:00.563Z,97771.07
2018-07-06T11:13:33.373Z,97769.33
2018-07-06T11:16:06.111Z,97772.72
2018-07-06T11:18:38.852Z,97772.72
2018-07-06T11:21:14.214Z,97769.21
2018-07-06T11:23:46.605Z,97767.99
2018-07-06T11:26:20.138Z,97774.23
2018-07-06T11:28:52.952Z,97778.55
2018-07-06T11:31:25.007Z,97774.70
2018-07-06T11:33:58.032Z,97774.83
2018-07-06T11:36:32.447Z,97771.19
2018-07-06T11:39:06.992Z,97770.97
2018-07-06T11:41:40.111Z,97771.19
2018-07-06T11:44:13.524Z,97768.56
2018-07-06T11:46:46.705Z,97772.31
2018-07-06T11:49:19.694Z,97767.22
2018-07-06T11:51:52.896Z,97769.69
2018-07-06T11:54:25.308Z,97765.23
2018-07-06T11:56:58.596Z,97765.88
2018-07-06T11:59:33.151Z,97769.38
2018-07-06T12:02:05.854Z,97769.60
2018-07-06T12:04:38.636Z,97770.51
2018-07-06T12:07:11.202Z,97770.20
2018-07-06T12:09:43.568Z,97770.80
2018-07-06T12:12:15.847Z,97769.60
2018-07-06T12:14:48.112Z,97766.34
2018-07-06T12:17:20.387Z,97767.69
2018-07-06T12:19:52.835Z,97766.40
2018-07-06T12:22:25.379Z,97755.61
2018-07-06T12:24:57.757Z,97754.84
2018-07-06T12:27:29.666Z,97749.91
2018-07-06T12:30:02.291Z,97755.28
2018-07-06T12:32:34.817Z,97752.33
2018-07-06T12:35:07.706Z,97757.91
2018-07-06T12:37:40.071Z,97757.22
2018-07-06T12:40:12.535Z,97754.23
2018-07-06T12:42:44.735Z,97752.45
2018-07-06T12:45:17.571Z,97750.38
2018-07-06T12:47:49.317Z,97754.93
2018-07-06T12:50:21.520Z,97758.21
2018-07-06T12:52:53.711Z,97763.06
2018-07-06T12:55:25.965Z,97770.20
2018-07-06T12:57:58.279Z,97774.23
2018-07-06T13:00:30.927Z,97777.21
2018-07-06T13:03:03.277Z,97774.06
2018-07-06T13:05:35.868Z,97789.13
2018-07-06T13:08:09.376Z,97790.63
2018-07-06T13:10:42.350Z,97794.70
2018-07-06T13:13:15.649Z,97798.08
2018-07-06T13:15:47.830Z,97803.00
2018-07-06T13:18:20.200Z,97805.69
2018-07-06T13:20:52.248Z,97809.71
2018-07-06T13:23:24.755Z,97818.72
2018-07-06T13:25:56.818Z,97828.93
2018-07-06T13:28:28.912Z,97832.20
2018-07-06T13:31:01.195Z,97834.30
2018-07-06T13:33:33.428Z,97833.25
2018-07-06T13:36:05.684Z,97835.72
2018-07-06T13:38:38.095Z,97838.10
2018-07-06T13:41:11.394Z,97841.30
2018-07-06T13:43:43.252Z,97846.16
2018-07-06T13:46:15.611Z,97849.05
2018-07-06T13:48:48.161Z,97853.38
2018-07-06T13:51:21.040Z,97858.23
2018-07-06T13:53:53.393Z,97856.06
2018-07-06T13:56:26.451Z,97859.27
2018-07-06T13:58:58.881Z,97861.95
2018-07-06T14:01:31.569Z,97872.25
2018-07-06T14:04:08.049Z,97864.20
2018-07-06T14:06:41.242Z,97859.35
2018-07-06T14:09:13.825Z,97854.72
2018-07-06T14:11:46.666Z,97857.41
2018-07-06T14:14:19.368Z,97861.73
2018-07-06T14:16:51.615Z,97870.81
2018-07-06T14:19:24.354Z,97875.88
2018-07-06T14:21:56.840Z,97875.88
2018-07-06T14:24:29.654Z,97877.44
2018-07-06T14:27:02.480Z,97880.37
2018-07-06T14:29:34.587Z,97875.28
2018-07-06T14:32:06.748Z,97885.79
2018-07-06T14:34:39.402Z,97888.48
2018-07-06T14:37:12.153Z,97884.75
2018-07-06T14:39:44.453Z,97889.60
2018-07-06T14:42:16.904Z,97899.30
2018-07-06T14:44:49.004Z,97906.31
2018-07-06T14:47:21.409Z,97913.02
2018-07-06T14:49:53.931Z,97925.61
2018-07-06T14:52:26.583Z,97926.95
2018-07-06T14:54:59.089Z,97925.09
2018-07-06T14:57:31.398Z,97926.13
2018-07-06T15:00:03.930Z,97924.78
2018-07-06T15:02:36.665Z,97918.08
2018-07-06T15:05:09.747Z,97919.42
2018-07-06T15:07:42.436Z,97918.08
2018-07-06T15:10:14.429Z,97921.28
2018-07-06T15:12:47.247Z,97928.81
2018-07-06T15:15:21.129Z,97930.16
2018-07-06T15:17:53.863Z,97931.49
2018-07-06T15:20:26.515Z,97934.48
2018-07-06T15:22:59.824Z,97936.34
2018-07-06T15:25:32.479Z,97935.52
2018-07-06T15:28:05.124Z,97937.16
2018-07-06T15:30:38.226Z,97937.16
2018-07-06T15:33:10.707Z,97934.78
2018-07-06T15:35:42.787Z,97935.82
2018-07-06T15:38:15.889Z,97937.16
2018-07-06T15:40:48.084Z,97941.41
2018-07-06T15:43:20.214Z,97939.55
2018-07-06T15:45:52.535Z,97948.41
2018-07-06T15:48:24.712Z,97951.61
2018-07-06T15:50:57.118Z,97955.12
2018-07-06T15:53:29.376Z,97954.60
2018-07-06T15:56:02.336Z,97951.41
2018-07-06T15:58:34.777Z,97962.66
2018-07-06T16:01:07.248Z,97961.62
2018-07-06T16:03:39.973Z,97965.91
